Time;durP1;ratioP1;P1;durP2;ratioP2;P2;SDS_P1;SDS_P2;PMS_P1;PMS_P2;Temp;Humidity;BMP_temperature;BMP_pressure;BME280_temperature;BME280_humidity;BME280_pressure;Samples;Min_cycle;Max_cycle;Signal;HPM_P1;HPM_P2
2022/03/25 00:02:12;;;;;;;54.30;41.58;;;15.60;67.30;;;;;;4974715;28;20073;-62
2022/03/25 00:04:37;;;;;;;51.78;40.58;;;15.60;67.30;;;;;;4974756;28;20129;-59
2022/03/25 00:07:03;;;;;;;57.47;42.63;;;15.50;67.50;;;;;;4974454;28;20440;-62
2022/03/25 00:09:28;;;;;;;54.45;40.58;;;15.50;67.40;;;;;;4974667;28;20061;-63
2022/03/25 00:11:54;;;;;;;51.15;41.17;;;15.50;67.60;;;;;;4974616;28;20031;-62
2022/03/25 00:14:19;;;;;;;49.92;39.92;;;15.50;67.70;;;;;;4974076;28;20078;-63
2022/03/25 00:16:45;;;;;;;54.92;41.38;;;15.50;67.80;;;;;;4974513;28;20484;-62
2022/03/25 00:19:11;;;;;;;53.72;41.95;;;15.40;67.80;;;;;;4974177;28;20054;-62
2022/03/25 00:21:37;;;;;;;54.47;42.72;;;15.40;67.70;;;;;;4974623;28;20389;-62
2022/03/25 00:24:04;;;;;;;48.45;40.55;;;15.40;67.80;;;;;;4974128;28;20499;-62
2022/03/25 00:26:30;;;;;;;52.53;39.60;;;15.40;68.10;;;;;;4974463;28;20064;-62
2022/03/25 00:28:55;;;;;;;52.15;42.42;;;15.40;68.20;;;;;;4973974;28;20018;-62
2022/03/25 00:31:21;;;;;;;57.97;43.30;;;15.30;68.10;;;;;;4974390;28;20027;-63
2022/03/25 00:33:49;;;;;;;55.45;42.20;;;15.30;67.80;;;;;;4974187;28;20078;-63
2022/03/25 00:36:16;;;;;;;62.25;43.10;;;15.40;67.80;;;;;;4974551;28;20027;-63
2022/03/25 00:38:42;;;;;;;58.78;42.03;;;15.30;67.80;;;;;;4974086;28;20055;-62
2022/03/25 00:41:08;;;;;;;54.03;41.55;;;15.30;67.80;;;;;;4974343;28;20046;-62
2022/03/25 00:43:34;;;;;;;58.13;43.28;;;15.30;67.90;;;;;;4973558;28;20030;-63
2022/03/25 00:46:00;;;;;;;56.38;43.72;;;15.30;67.90;;;;;;4974088;28;20027;-63
2022/03/25 00:48:27;;;;;;;56.70;41.47;;;15.30;67.80;;;;;;4973961;28;20082;-59
2022/03/25 00:50:53;;;;;;;57.60;43.22;;;15.30;67.90;;;;;;4974017;28;20511;-62
2022/03/25 00:53:19;;;;;;;55.67;43.70;;;15.30;68.00;;;;;;4973886;28;20054;-62
2022/03/25 00:55:44;;;;;;;54.33;43.08;;;15.20;68.00;;;;;;4973632;28;20105;-56
2022/03/25 00:58:10;;;;;;;56.25;43.35;;;15.20;68.10;;;;;;4973828;28;20387;-62
2022/03/25 01:00:36;;;;;;;60.72;44.63;;;15.20;68.20;;;;;;4974060;28;20038;-62
2022/03/25 01:03:02;;;;;;;60.35;45.08;;;15.20;68.10;;;;;;4973968;28;20062;-62
2022/03/25 01:05:27;;;;;;;61.25;46.25;;;15.10;68.10;;;;;;4973713;28;20388;-62
2022/03/25 01:07:53;;;;;;;58.40;43.42;;;15.10;68.10;;;;;;4974069;28;20114;-62
2022/03/25 01:10:18;;;;;;;61.03;43.78;;;15.10;68.10;;;;;;4973565;28;20058;-60
2022/03/25 01:12:44;;;;;;;59.08;43.33;;;15.10;68.20;;;;;;4973845;28;20035;-62
2022/03/25 01:15:10;;;;;;;60.17;44.40;;;15.00;68.20;;;;;;4973750;28;20023;-62
2022/03/25 01:17:35;;;;;;;61.22;42.90;;;15.00;68.20;;;;;;4973686;28;20042;-62
2022/03/25 01:20:01;;;;;;;55.63;42.53;;;15.00;68.40;;;;;;4973742;28;20150;-61
2022/03/25 01:22:27;;;;;;;57.22;42.58;;;15.00;68.50;;;;;;4956638;28;20031;-62
2022/03/25 01:24:52;;;;;;;60.50;43.38;;;15.00;68.50;;;;;;4973430;28;20031;-59
2022/03/25 01:27:18;;;;;;;56.53;43.95;;;15.00;68.70;;;;;;4973755;28;20027;-62
2022/03/25 01:29:43;;;;;;;56.85;42.17;;;14.90;68.70;;;;;;4974129;28;20105;-61
2022/03/25 01:32:10;;;;;;;58.80;44.15;;;15.00;68.60;;;;;;4977221;28;20030;-62
2022/03/25 01:34:37;;;;;;;55.88;41.58;;;14.90;68.60;;;;;;4977050;28;20027;-62
2022/03/25 01:37:02;;;;;;;56.97;43.13;;;14.90;68.70;;;;;;4977110;28;20400;-62
2022/03/25 01:39:28;;;;;;;60.75;43.63;;;14.90;68.90;;;;;;4976867;28;20034;-62
2022/03/25 01:41:55;;;;;;;56.00;41.88;;;14.90;68.80;;;;;;4977020;28;20443;-62
2022/03/25 01:44:30;;;;;;;62.95;43.35;;;14.90;68.80;;;;;;4976872;28;20038;-62
2022/03/25 01:46:57;;;;;;;59.67;42.20;;;14.90;68.90;;;;;;4977051;28;20027;-62
2022/03/25 01:49:23;;;;;;;59.78;43.88;;;14.80;69.00;;;;;;4976862;28;20035;-62
2022/03/25 01:51:51;;;;;;;61.15;43.42;;;14.80;69.10;;;;;;4977112;28;20535;-62
2022/03/25 01:54:21;;;;;;;55.22;42.60;;;14.80;69.10;;;;;;4976424;28;20476;-62
2022/03/25 01:56:56;;;;;;;61.03;43.13;;;14.80;69.20;;;;;;4976993;28;20110;-62
2022/03/25 01:59:23;;;;;;;57.45;43.15;;;14.80;69.20;;;;;;4976586;28;20102;-62
2022/03/25 02:01:49;;;;;;;60.25;44.13;;;14.70;69.30;;;;;;4976832;28;20027;-59
2022/03/25 02:04:15;;;;;;;60.70;44.63;;;14.70;69.30;;;;;;4976564;28;20042;-62
2022/03/25 02:06:42;;;;;;;55.17;40.55;;;14.70;69.20;;;;;;4976518;28;20030;-62
2022/03/25 02:09:07;;;;;;;58.35;43.67;;;14.70;69.30;;;;;;4976184;28;20031;-61
2022/03/25 02:11:34;;;;;;;58.80;44.67;;;14.70;69.40;;;;;;4976588;28;20049;-61
2022/03/25 02:14:01;;;;;;;57.22;44.05;;;14.70;69.40;;;;;;4976516;28;20495;-60
2022/03/25 02:16:42;;;;;;;61.78;43.83;;;14.60;69.30;;;;;;4976507;28;20027;-62
2022/03/25 02:19:10;;;;;;;57.23;43.07;;;14.60;69.40;;;;;;4976075;28;20039;-60
2022/03/25 02:21:40;;;;;;;56.70;43.55;;;14.60;69.60;;;;;;4976352;28;20034;-62
2022/03/25 02:24:08;;;;;;;50.67;40.85;;;14.60;69.50;;;;;;4976004;28;20388;-62
2022/03/25 02:26:35;;;;;;;58.50;42.05;;;14.60;69.40;;;;;;4976475;28;20101;-62
2022/03/25 02:29:03;;;;;;;66.90;44.90;;;14.60;69.30;;;;;;4976019;28;20034;-61
2022/03/25 02:31:28;;;;;;;60.10;42.50;;;14.60;69.40;;;;;;4976097;28;20029;-62
2022/03/25 02:34:03;;;;;;;56.45;42.78;;;14.60;69.30;;;;;;4976134;28;20395;-60
2022/03/25 02:36:29;;;;;;;56.15;42.88;;;14.60;69.40;;;;;;4958784;28;20081;-62
2022/03/25 02:38:55;;;;;;;57.42;41.60;;;14.50;70.00;;;;;;4975832;28;20465;-62
2022/03/25 02:41:21;;;;;;;56.80;42.13;;;14.50;69.20;;;;;;4975806;28;20077;-54
2022/03/25 02:43:46;;;;;;;56.42;41.92;;;14.50;69.10;;;;;;4975890;28;20126;-62
2022/03/25 02:46:12;;;;;;;57.55;42.25;;;14.50;69.20;;;;;;4975787;28;20437;-62
2022/03/25 02:48:38;;;;;;;55.72;42.28;;;14.40;69.10;;;;;;4976053;28;20487;-60
2022/03/25 02:51:04;;;;;;;54.28;39.88;;;14.40;69.00;;;;;;4975656;28;20026;-61
2022/03/25 02:53:30;;;;;;;58.20;41.33;;;14.40;69.30;;;;;;4975508;28;20093;-61
2022/03/25 02:55:56;;;;;;;51.30;39.30;;;14.40;68.90;;;;;;4975639;28;20033;-62
2022/03/25 02:58:22;;;;;;;53.13;39.67;;;14.40;69.10;;;;;;4975796;28;20041;-61
2022/03/25 03:00:48;;;;;;;56.20;40.53;;;14.40;69.10;;;;;;4975474;28;20026;-61
2022/03/25 03:03:13;;;;;;;51.63;39.67;;;14.30;68.90;;;;;;4975498;28;20035;-61
2022/03/25 03:05:39;;;;;;;49.20;38.47;;;14.40;69.10;;;;;;4975724;28;20031;-57
2022/03/25 03:08:06;;;;;;;54.13;40.22;;;14.30;69.10;;;;;;4975833;28;20030;-62
2022/03/25 03:10:32;;;;;;;55.85;41.15;;;14.30;69.20;;;;;;4975977;28;20034;-62
2022/03/25 03:13:02;;;;;;;55.47;40.70;;;14.30;69.10;;;;;;4993158;28;20496;-58
2022/03/25 03:15:28;;;;;;;55.10;40.63;;;14.20;69.30;;;;;;4991989;28;20104;-62
2022/03/25 03:17:53;;;;;;;61.40;40.28;;;14.20;69.10;;;;;;4976996;28;20484;-62
2022/03/25 03:20:20;;;;;;;56.67;39.08;;;14.20;69.00;;;;;;4994579;28;20037;-61
2022/03/25 03:22:47;;;;;;;53.03;38.22;;;14.20;68.90;;;;;;4994168;28;20427;-56
2022/03/25 03:25:13;;;;;;;52.28;38.22;;;14.20;68.90;;;;;;4988042;28;20035;-62
2022/03/25 03:27:39;;;;;;;47.90;36.45;;;14.20;68.70;;;;;;4974707;28;20015;-62
2022/03/25 03:30:06;;;;;;;56.95;37.88;;;14.20;68.60;;;;;;4973651;28;20030;-62
2022/03/25 03:32:32;;;;;;;51.58;38.25;;;14.10;68.70;;;;;;4975096;28;20015;-61
2022/03/25 03:34:58;;;;;;;50.33;37.88;;;14.10;68.60;;;;;;4974142;28;20472;-58
2022/03/25 03:37:25;;;;;;;48.72;36.47;;;14.10;68.70;;;;;;4974463;28;20077;-62
2022/03/25 03:39:50;;;;;;;49.38;36.60;;;14.10;68.60;;;;;;4975084;28;20030;-62
2022/03/25 03:42:16;;;;;;;48.78;36.08;;;14.10;68.50;;;;;;4974738;28;20023;-62
2022/03/25 03:44:42;;;;;;;49.90;37.03;;;14.00;68.60;;;;;;4973734;28;20125;-63
2022/03/25 03:47:08;;;;;;;52.03;37.53;;;14.00;68.60;;;;;;4974651;28;20030;-62
2022/03/25 03:49:35;;;;;;;50.80;37.22;;;14.00;68.80;;;;;;4974633;28;20034;-62
2022/03/25 03:52:02;;;;;;;49.22;34.78;;;14.00;68.70;;;;;;4974397;28;20026;-61
2022/03/25 03:54:28;;;;;;;51.92;35.35;;;14.00;68.60;;;;;;4974393;28;20034;-56
2022/03/25 03:56:53;;;;;;;46.28;34.72;;;14.00;68.50;;;;;;4974581;28;20495;-62
2022/03/25 03:59:19;;;;;;;45.78;35.17;;;13.90;68.70;;;;;;4974584;28;20030;-62
2022/03/25 04:01:45;;;;;;;53.08;34.47;;;13.90;68.90;;;;;;4973524;28;20046;-61
2022/03/25 04:04:11;;;;;;;44.83;33.75;;;13.90;69.20;;;;;;4974430;28;20049;-63
2022/03/25 04:06:37;;;;;;;44.35;34.47;;;13.90;69.10;;;;;;4974299;28;20027;-62
2022/03/25 04:09:02;;;;;;;43.20;33.65;;;13.90;69.20;;;;;;4974376;28;20034;-62
2022/03/25 04:11:28;;;;;;;46.55;34.08;;;13.80;69.50;;;;;;4974591;28;20069;-58
2022/03/25 04:13:53;;;;;;;44.15;33.75;;;13.80;69.60;;;;;;4974205;28;20054;-62
2022/03/25 04:16:20;;;;;;;42.78;32.92;;;13.80;69.40;;;;;;4974694;28;20385;-61
2022/03/25 04:18:46;;;;;;;49.83;36.15;;;13.80;69.50;;;;;;4974062;28;20077;-62
2022/03/25 04:21:12;;;;;;;45.42;34.25;;;13.80;69.20;;;;;;4974631;28;20046;-62
2022/03/25 04:23:37;;;;;;;44.72;33.15;;;13.80;69.30;;;;;;4974104;28;20035;-62
2022/03/25 04:26:04;;;;;;;50.45;33.85;;;13.80;69.30;;;;;;4974350;28;20106;-61
2022/03/25 04:28:29;;;;;;;46.30;34.20;;;13.70;69.60;;;;;;4974116;28;20038;-62
2022/03/25 04:30:55;;;;;;;45.28;33.17;;;13.70;69.60;;;;;;4974320;28;20031;-61
2022/03/25 04:33:20;;;;;;;45.17;34.63;;;13.70;69.20;;;;;;4973803;28;20039;-62
2022/03/25 04:35:46;;;;;;;46.30;34.25;;;13.70;69.10;;;;;;4974368;28;20050;-62
2022/03/25 04:38:11;;;;;;;45.80;33.38;;;13.70;69.10;;;;;;4974086;28;20030;-62
2022/03/25 04:40:37;;;;;;;40.35;33.15;;;13.70;68.60;;;;;;4974305;28;20370;-61
2022/03/25 04:43:03;;;;;;;45.65;32.30;;;13.60;68.80;;;;;;4973961;28;20125;-58
2022/03/25 04:45:30;;;;;;;44.80;32.60;;;13.60;68.80;;;;;;4974345;28;20026;-62
2022/03/25 04:47:56;;;;;;;45.28;32.40;;;13.60;68.50;;;;;;4973522;28;20106;-61
2022/03/25 04:50:22;;;;;;;44.13;33.28;;;13.60;68.60;;;;;;4974241;28;20546;-54
2022/03/25 04:52:48;;;;;;;44.22;33.35;;;13.50;68.70;;;;;;4974174;28;20033;-63
2022/03/25 04:55:14;;;;;;;42.03;31.60;;;13.50;68.70;;;;;;4973799;28;20110;-61
2022/03/25 04:57:41;;;;;;;41.10;31.48;;;13.50;68.60;;;;;;4974237;28;20494;-62
2022/03/25 05:00:08;;;;;;;47.85;31.63;;;13.50;68.60;;;;;;4973902;28;20480;-62
2022/03/25 05:02:34;;;;;;;47.00;31.83;;;13.50;68.80;;;;;;4973709;28;20027;-62
2022/03/25 05:05:00;;;;;;;44.33;30.23;;;13.50;68.70;;;;;;4974692;28;20038;-61
2022/03/25 05:07:26;;;;;;;41.55;31.45;;;13.40;68.60;;;;;;4977631;28;20027;-62
2022/03/25 05:09:52;;;;;;;38.10;29.38;;;13.40;68.40;;;;;;4977682;28;20023;-62
2022/03/25 05:12:17;;;;;;;38.70;30.02;;;13.40;68.70;;;;;;4977559;28;20027;-62
2022/03/25 05:14:43;;;;;;;48.92;30.42;;;13.30;68.80;;;;;;4977514;28;20023;-61
2022/03/25 05:17:08;;;;;;;42.35;30.42;;;13.30;68.20;;;;;;4977364;28;20098;-59
2022/03/25 05:19:34;;;;;;;46.05;30.95;;;13.30;68.30;;;;;;4977199;28;20039;-62
2022/03/25 05:22:00;;;;;;;42.40;31.30;;;13.30;68.40;;;;;;4976343;28;20023;-61
2022/03/25 05:24:26;;;;;;;41.90;30.02;;;13.30;68.40;;;;;;4977383;28;20042;-61
2022/03/25 05:26:53;;;;;;;45.53;33.15;;;13.30;68.30;;;;;;4977397;28;20034;-62
2022/03/25 05:29:19;;;;;;;39.17;29.10;;;13.30;67.60;;;;;;4977139;28;20038;-60
2022/03/25 05:31:45;;;;;;;42.38;29.67;;;13.30;67.30;;;;;;4976943;28;20019;-62
2022/03/25 05:34:10;;;;;;;37.97;29.15;;;13.30;67.30;;;;;;4977315;28;20081;-61
2022/03/25 05:36:36;;;;;;;40.65;29.17;;;13.30;66.90;;;;;;4977424;28;20476;-62
2022/03/25 05:39:03;;;;;;;40.38;30.80;;;13.20;66.70;;;;;;4976879;28;20476;-61
2022/03/25 05:41:29;;;;;;;43.22;31.55;;;13.30;66.50;;;;;;4977019;28;20106;-62
2022/03/25 05:43:55;;;;;;;39.70;31.35;;;13.30;66.40;;;;;;4977001;28;20027;-62
2022/03/25 05:46:20;;;;;;;40.63;30.92;;;13.30;66.40;;;;;;4976661;28;20054;-61
2022/03/25 05:48:46;;;;;;;41.88;32.13;;;13.20;66.60;;;;;;4976961;28;20046;-61
2022/03/25 05:51:13;;;;;;;41.63;30.95;;;13.20;66.80;;;;;;4976863;28;20069;-57
2022/03/25 05:53:39;;;;;;;40.47;30.55;;;13.20;66.70;;;;;;4976826;28;20085;-61
2022/03/25 05:56:06;;;;;;;42.95;31.55;;;13.20;66.70;;;;;;4981636;28;20535;-57
2022/03/25 05:58:33;;;;;;;42.10;31.27;;;13.20;66.80;;;;;;4996094;28;20038;-62
2022/03/25 06:00:59;;;;;;;50.45;31.50;;;13.20;67.60;;;;;;4990968;28;20472;-54
2022/03/25 06:03:25;;;;;;;38.90;30.20;;;13.10;67.20;;;;;;4992767;28;20125;-62
2022/03/25 06:05:50;;;;;;;45.00;31.80;;;13.10;67.20;;;;;;4994284;28;20022;-61
2022/03/25 06:08:16;;;;;;;47.53;30.58;;;13.10;67.00;;;;;;4987958;28;20476;-61
2022/03/25 06:10:41;;;;;;;42.58;29.85;;;13.10;67.40;;;;;;4991216;28;20038;-59
2022/03/25 06:13:07;;;;;;;42.13;31.20;;;13.10;67.70;;;;;;4986397;28;20029;-63
2022/03/25 06:15:33;;;;;;;41.17;30.73;;;13.10;67.80;;;;;;4985382;28;20029;-63
2022/03/25 06:17:59;;;;;;;40.95;31.23;;;13.10;67.40;;;;;;4988761;28;20042;-60
2022/03/25 06:20:24;;;;;;;42.70;29.30;;;13.10;66.60;;;;;;4991682;28;20487;-59
2022/03/25 06:22:50;;;;;;;37.40;28.35;;;13.10;66.80;;;;;;4992382;28;20492;-56
2022/03/25 06:25:17;;;;;;;37.75;28.90;;;13.10;67.90;;;;;;4989217;28;20125;-57
2022/03/25 06:28:00;;;;;;;47.15;30.13;;;13.20;67.70;;;;;;4990149;28;20018;-57
2022/03/25 06:30:27;;;;;;;;;;;13.20;67.50;;;;;;4987923;28;20026;-61
2022/03/25 06:32:54;;;;;;;41.95;30.48;;;13.20;67.30;;;;;;4995393;28;19924;-53
2022/03/25 06:35:21;;;;;;;44.97;32.47;;;13.20;67.30;;;;;;4989354;28;20027;-63
2022/03/25 06:37:47;;;;;;;42.13;33.17;;;13.30;67.10;;;;;;4992800;28;20026;-53
2022/03/25 06:40:14;;;;;;;48.33;31.92;;;13.20;67.20;;;;;;4988728;28;20068;-54
2022/03/25 06:42:40;;;;;;;36.13;28.45;;;13.20;66.70;;;;;;4985337;28;20532;-54
2022/03/25 06:45:08;;;;;;;43.00;30.98;;;13.20;68.00;;;;;;4985497;28;20113;-63
2022/03/25 06:47:35;;;;;;;41.65;32.67;;;13.30;67.50;;;;;;4989535;28;20054;-64
2022/03/25 06:50:02;;;;;;;44.10;31.70;;;13.40;66.90;;;;;;4985201;28;20027;-64
2022/03/25 06:52:27;;;;;;;39.67;30.83;;;13.40;67.50;;;;;;4994079;28;20030;-63
2022/03/25 06:54:53;;;;;;;45.90;31.13;;;13.40;67.10;;;;;;4990437;28;20113;-63
2022/03/25 06:57:19;;;;;;;53.17;31.92;;;13.40;66.50;;;;;;4985074;28;20388;-51
2022/03/25 06:59:46;;;;;;;38.88;29.13;;;13.50;66.60;;;;;;4986946;28;20045;-62
2022/03/25 07:02:12;;;;;;;41.08;32.08;;;13.50;66.40;;;;;;4990887;28;20027;-64
2022/03/25 07:04:39;;;;;;;45.05;32.72;;;13.60;66.20;;;;;;4969788;28;20488;-62
2022/03/25 07:07:06;;;;;;;44.58;31.80;;;13.60;65.90;;;;;;4992323;28;20523;-63
2022/03/25 07:09:32;;;;;;;51.72;32.42;;;13.60;65.60;;;;;;4989521;28;20053;-61
2022/03/25 07:11:59;;;;;;;49.20;33.03;;;13.60;65.00;;;;;;4987782;28;20026;-62
2022/03/25 07:14:25;;;;;;;46.35;31.92;;;13.70;64.80;;;;;;4987829;28;20101;-63
2022/03/25 07:16:51;;;;;;;58.25;33.28;;;13.70;64.70;;;;;;4992634;28;20391;-62
2022/03/25 07:19:17;;;;;;;47.50;32.45;;;13.70;65.00;;;;;;4990324;28;20746;-63
2022/03/25 07:21:43;;;;;;;42.50;32.20;;;13.80;64.90;;;;;;4974028;28;20023;-63
2022/03/25 07:24:09;;;;;;;49.95;33.15;;;13.80;64.80;;;;;;4974152;28;20068;-63
2022/03/25 07:26:36;;;;;;;45.33;31.60;;;13.80;64.40;;;;;;4973846;28;20109;-63
2022/03/25 07:29:01;;;;;;;46.28;31.35;;;13.90;64.00;;;;;;4973785;28;20031;-63
2022/03/25 07:31:28;;;;;;;47.25;32.20;;;13.90;64.30;;;;;;4988103;28;20034;-63
2022/03/25 07:33:57;;;;;;;49.88;30.75;;;13.90;63.90;;;;;;4994291;28;20106;-63
2022/03/25 07:36:23;;;;;;;50.33;32.83;;;14.00;64.30;;;;;;4993826;28;20112;-62
2022/03/25 07:38:49;;;;;;;39.47;30.65;;;14.00;64.60;;;;;;4994308;28;20072;-63
2022/03/25 07:41:14;;;;;;;43.30;30.98;;;14.10;64.40;;;;;;4991723;28;20050;-63
2022/03/25 07:43:40;;;;;;;46.65;33.00;;;14.10;64.20;;;;;;4974310;28;20077;-63
2022/03/25 07:46:06;;;;;;;50.65;31.00;;;14.20;63.90;;;;;;4975872;28;20503;-63
2022/03/25 07:48:32;;;;;;;49.88;31.88;;;14.20;63.90;;;;;;4975014;28;20039;-63
2022/03/25 07:50:58;;;;;;;45.35;30.95;;;14.20;64.10;;;;;;4993717;28;20110;-62
2022/03/25 07:53:24;;;;;;;44.88;31.98;;;14.30;64.40;;;;;;4993887;28;20026;-60
2022/03/25 07:55:51;;;;;;;51.67;32.33;;;14.30;64.50;;;;;;4994175;28;20030;-63
2022/03/25 07:58:21;;;;;;;51.50;34.90;;;14.40;63.90;;;;;;4993705;28;20039;-64
2022/03/25 08:00:48;;;;;;;54.03;34.90;;;14.40;63.60;;;;;;4993909;28;20029;-63
2022/03/25 08:03:14;;;;;;;53.22;35.97;;;14.40;63.60;;;;;;4993783;28;20038;-63
2022/03/25 08:05:40;;;;;;;48.38;34.42;;;14.50;63.70;;;;;;4994228;28;20022;-63
2022/03/25 08:08:06;;;;;;;50.13;34.13;;;14.50;63.20;;;;;;4993874;28;20026;-63
2022/03/25 08:10:32;;;;;;;52.65;36.13;;;14.50;63.10;;;;;;4976356;28;20030;-63
2022/03/25 08:12:59;;;;;;;46.30;34.30;;;14.50;62.90;;;;;;4976009;28;20109;-63
2022/03/25 08:15:29;;;;;;;45.10;33.45;;;14.50;62.60;;;;;;4993719;28;20035;-63
2022/03/25 08:17:58;;;;;;;50.55;33.17;;;14.60;61.80;;;;;;4993744;28;20026;-62
2022/03/25 08:20:25;;;;;;;54.83;32.80;;;14.60;62.00;;;;;;4992678;28;20065;-62
2022/03/25 08:22:52;;;;;;;46.72;32.80;;;14.60;62.30;;;;;;4984939;28;20031;-63
2022/03/25 08:28:02;;;;;;;50.53;32.47;;;14.70;62.50;;;;;;4973607;28;20033;-63
2022/03/25 08:30:30;;;;;;;57.38;33.45;;;14.70;62.70;;;;;;4972197;28;20027;-61
2022/03/25 08:32:57;;;;;;;49.58;32.10;;;14.70;61.90;;;;;;4972096;28;21016;-62
2022/03/25 08:35:22;;;;;;;50.05;32.88;;;14.80;60.40;;;;;;4972045;28;20023;-59
2022/03/25 08:37:48;;;;;;;44.85;30.08;;;14.80;60.30;;;;;;4971738;28;20041;-61
2022/03/25 08:40:14;;;;;;;47.22;32.17;;;14.80;59.90;;;;;;4974861;28;20019;-60
2022/03/25 08:42:39;;;;;;;45.80;32.67;;;14.80;59.70;;;;;;4975794;28;20058;-62
2022/03/25 08:45:05;;;;;;;41.50;30.15;;;14.80;59.90;;;;;;4977747;28;20023;-63
2022/03/25 08:47:31;;;;;;;50.90;32.55;;;14.80;59.70;;;;;;4977787;28;20101;-63
2022/03/25 08:49:56;;;;;;;50.67;31.52;;;14.80;59.60;;;;;;4978016;28;20432;-62
2022/03/25 08:52:22;;;;;;;44.70;30.70;;;14.90;58.80;;;;;;4984344;28;20050;-62
2022/03/25 08:54:48;;;;;;;45.78;30.70;;;14.80;58.90;;;;;;4996269;28;20030;-62
2022/03/25 08:57:14;;;;;;;50.80;29.15;;;14.90;58.60;;;;;;4997362;28;20072;-62
2022/03/25 08:59:40;;;;;;;40.83;29.75;;;14.90;58.70;;;;;;4997445;28;20026;-62
2022/03/25 09:02:06;;;;;;;40.67;28.00;;;14.90;57.80;;;;;;4997203;28;20022;-61
2022/03/25 09:04:31;;;;;;;38.95;28.30;;;14.90;57.60;;;;;;4997075;28;20074;-53
2022/03/25 09:06:58;;;;;;;37.13;26.33;;;14.90;57.20;;;;;;4996305;28;20052;-61
2022/03/25 09:09:23;;;;;;;38.90;24.13;;;15.00;57.30;;;;;;4996199;28;20026;-62
2022/03/25 09:11:49;;;;;;;32.65;23.55;;;15.00;56.60;;;;;;4996950;28;20080;-62
2022/03/25 09:14:15;;;;;;;32.92;22.80;;;15.00;56.80;;;;;;4980821;28;20085;-62
2022/03/25 09:16:41;;;;;;;34.70;22.73;;;15.00;55.40;;;;;;4977706;28;20101;-63
2022/03/25 09:19:06;;;;;;;35.97;21.48;;;15.10;54.50;;;;;;4977363;28;20050;-62
2022/03/25 09:21:32;;;;;;;26.77;20.35;;;15.00;54.20;;;;;;4984458;28;20027;-59
2022/03/25 09:23:57;;;;;;;36.60;21.23;;;15.00;54.90;;;;;;4993571;28;20043;-63
2022/03/25 09:26:25;;;;;;;34.33;22.45;;;15.00;54.30;;;;;;4987044;28;20026;-62
2022/03/25 09:28:50;;;;;;;31.05;21.45;;;15.10;55.30;;;;;;4997000;28;20038;-62
2022/03/25 09:31:16;;;;;;;35.88;21.75;;;15.10;54.80;;;;;;4979956;28;20030;-62
2022/03/25 09:33:42;;;;;;;32.95;22.30;;;15.10;54.80;;;;;;4977116;28;20063;-63
2022/03/25 09:36:07;;;;;;;30.67;21.83;;;15.10;54.80;;;;;;4986948;28;20388;-63
2022/03/25 09:38:33;;;;;;;33.05;22.60;;;15.10;55.00;;;;;;4996351;28;20027;-62
2022/03/25 09:41:03;;;;;;;34.40;20.85;;;15.20;55.50;;;;;;4992567;28;20057;-59
2022/03/25 09:43:29;;;;;;;36.60;22.63;;;15.30;58.00;;;;;;4992641;28;20475;-57
2022/03/25 09:45:54;;;;;;;32.13;21.05;;;15.50;57.60;;;;;;4989628;28;20026;-62
2022/03/25 09:48:20;;;;;;;32.80;21.15;;;15.60;57.00;;;;;;4995114;28;20479;-62
2022/03/25 09:50:45;;;;;;;31.25;20.95;;;15.70;57.90;;;;;;4982069;28;20369;-61
2022/03/25 09:53:11;;;;;;;31.40;20.65;;;15.80;56.70;;;;;;4986474;28;20024;-61
2022/03/25 09:55:42;;;;;;;39.50;25.52;;;15.80;56.60;;;;;;5006917;28;20480;-61
2022/03/25 09:58:09;;;;;;;37.50;26.40;;;15.80;55.60;;;;;;4996474;28;20208;-62
2022/03/25 10:00:35;;;;;;;34.38;25.40;;;15.70;54.90;;;;;;4996209;28;20018;-61
2022/03/25 10:03:01;;;;;;;40.88;27.92;;;15.60;54.20;;;;;;4995668;28;20022;-61
2022/03/25 10:05:26;;;;;;;36.92;25.80;;;15.60;54.30;;;;;;4996040;28;20038;-58
2022/03/25 10:07:57;;;;;;;38.92;27.20;;;15.60;54.30;;;;;;4995815;28;20037;-58
2022/03/25 10:10:24;;;;;;;35.13;26.58;;;15.50;53.90;;;;;;4996059;28;20038;-61
2022/03/25 10:13:05;;;;;;;38.83;27.90;;;15.50;54.50;;;;;;4995823;28;20502;-57
2022/03/25 10:15:37;;;;;;;36.92;26.88;;;15.50;54.50;;;;;;4995935;28;20027;-61
2022/03/25 10:18:07;;;;;;;37.85;27.00;;;15.50;53.90;;;;;;4995655;28;20037;-62
2022/03/25 10:20:41;;;;;;;32.90;23.75;;;15.50;54.10;;;;;;4995847;28;20037;-62
2022/03/25 10:23:09;;;;;;;41.88;30.77;;;15.50;55.40;;;;;;4995575;28;20038;-62
2022/03/25 10:25:47;;;;;;;47.78;32.00;;;15.30;52.20;;;;;;4995776;28;20065;-62
2022/03/25 10:28:34;;;;;;;42.65;29.70;;;15.20;53.00;;;;;;4995805;28;20041;-62
2022/03/25 10:31:02;;;;;;;45.92;30.45;;;15.10;53.60;;;;;;4995288;28;20431;-62
2022/03/25 10:33:36;;;;;;;38.53;30.98;;;14.90;52.80;;;;;;4996058;28;20105;-61
2022/03/25 10:36:08;;;;;;;39.10;30.48;;;14.90;52.70;;;;;;4995164;28;20023;-62
2022/03/25 10:38:47;;;;;;;36.30;27.80;;;14.90;53.00;;;;;;4995510;28;20514;-62
2022/03/25 10:41:15;;;;;;;39.08;28.90;;;14.90;56.00;;;;;;4995401;28;20395;-62
2022/03/25 10:43:49;;;;;;;33.67;25.35;;;15.00;51.70;;;;;;4995168;28;20038;-61
2022/03/25 10:46:42;;;;;;;43.75;27.10;;;15.00;55.40;;;;;;4995369;28;20396;-61
2022/03/25 10:49:10;;;;;;;39.10;27.25;;;15.00;51.00;;;;;;4995249;28;20372;-61
2022/03/25 10:51:38;;;;;;;37.42;28.02;;;14.90;51.40;;;;;;4994995;28;20029;-62
2022/03/25 10:54:08;;;;;;;43.75;29.70;;;14.90;51.00;;;;;;4995101;28;20030;-61
2022/03/25 10:56:57;;;;;;;45.20;28.20;;;14.80;51.40;;;;;;4995108;28;20046;-62
2022/03/25 10:59:31;;;;;;;40.60;27.60;;;14.80;52.00;;;;;;4995092;28;20892;-61
2022/03/25 11:02:02;;;;;;;38.33;24.02;;;14.90;52.00;;;;;;4994486;28;20026;-60
2022/03/25 11:04:28;;;;;;;29.70;20.45;;;14.80;50.70;;;;;;4994363;28;20444;-61
2022/03/25 11:06:55;;;;;;;29.05;20.02;;;14.90;49.30;;;;;;4994332;28;20120;-61
2022/03/25 11:09:22;;;;;;;33.60;23.90;;;15.00;48.30;;;;;;4994922;28;20026;-62
2022/03/25 11:11:49;;;;;;;34.40;21.58;;;14.80;48.90;;;;;;4994638;28;20018;-60
2022/03/25 11:14:16;;;;;;;30.10;17.73;;;14.80;50.20;;;;;;4994624;28;20031;-62
2022/03/25 11:16:44;;;;;;;26.50;16.85;;;15.00;49.40;;;;;;4994626;28;20165;-62
2022/03/25 11:19:11;;;;;;;26.13;20.08;;;15.10;46.20;;;;;;4994505;28;20081;-61
2022/03/25 11:21:47;;;;;;;31.98;21.33;;;15.00;47.50;;;;;;4994251;28;20105;-62
2022/03/25 11:24:30;;;;;;;29.70;19.45;;;14.90;47.80;;;;;;4994525;28;20043;-62
2022/03/25 11:26:57;;;;;;;27.88;18.70;;;15.00;46.70;;;;;;4994295;28;20030;-62
2022/03/25 11:29:26;;;;;;;24.23;16.73;;;15.00;46.00;;;;;;4994252;28;20026;-63
2022/03/25 11:32:11;;;;;;;31.02;17.63;;;15.00;45.60;;;;;;4994058;28;20022;-61
2022/03/25 11:34:43;;;;;;;33.58;19.65;;;15.00;47.00;;;;;;4994041;28;20018;-63
2022/03/25 11:37:38;;;;;;;27.33;19.33;;;14.90;45.60;;;;;;4994016;28;20099;-61
2022/03/25 11:40:13;;;;;;;28.30;20.38;;;15.10;46.40;;;;;;4981020;28;20031;-58
2022/03/25 11:42:44;;;;;;;30.38;21.10;;;15.20;48.20;;;;;;4994077;28;20495;-54
2022/03/25 11:45:21;;;;;;;27.75;21.50;;;15.20;47.50;;;;;;4994293;28;20030;-62
2022/03/25 11:48:05;;;;;;;28.85;18.38;;;15.10;46.90;;;;;;4993946;28;20033;-62
2022/03/25 11:50:34;;;;;;;24.00;16.67;;;15.20;45.90;;;;;;4993792;28;20077;-62
2022/03/25 11:53:23;;;;;;;37.20;24.50;;;15.30;48.90;;;;;;4994021;28;20022;-63
2022/03/25 11:56:00;;;;;;;38.00;26.25;;;15.40;49.20;;;;;;4993797;28;20118;-62
2022/03/25 11:58:36;;;;;;;35.00;24.13;;;15.50;49.30;;;;;;4993685;28;20411;-62
2022/03/25 12:01:11;;;;;;;37.45;25.13;;;15.40;48.60;;;;;;4993837;28;20483;-62
2022/03/25 12:03:43;;;;;;;34.25;22.88;;;15.50;49.20;;;;;;4993466;28;20043;-63
2022/03/25 12:06:11;;;;;;;32.17;24.02;;;15.40;48.40;;;;;;4993866;28;20443;-62
2022/03/25 12:08:38;;;;;;;34.08;24.50;;;15.40;48.30;;;;;;4993682;28;20015;-63
2022/03/25 12:11:06;;;;;;;36.88;25.33;;;15.40;49.20;;;;;;4993686;28;20027;-62
2022/03/25 12:13:50;;;;;;;28.48;21.15;;;15.40;49.40;;;;;;4993371;28;20153;-62
2022/03/25 12:16:47;;;;;;;23.30;16.55;;;15.50;49.70;;;;;;4993960;28;20053;-62
2022/03/25 12:19:30;;;;;;;33.35;22.00;;;15.50;49.20;;;;;;4992977;28;20049;-62
2022/03/25 12:22:00;;;;;;;37.63;23.85;;;15.50;47.50;;;;;;4993280;28;20089;-62
2022/03/25 12:24:29;;;;;;;36.38;23.55;;;15.30;48.30;;;;;;4993313;28;20065;-62
2022/03/25 12:27:04;;;;;;;29.02;22.05;;;15.40;48.70;;;;;;4993295;28;20022;-62
2022/03/25 12:29:43;;;;;;;37.35;24.80;;;15.60;50.60;;;;;;4993178;28;20045;-62
2022/03/25 12:32:15;;;;;;;32.63;22.88;;;15.50;48.70;;;;;;4992790;28;20022;-62
2022/03/25 12:34:44;;;;;;;29.67;22.70;;;15.60;49.60;;;;;;4992961;28;20022;-59